sensor_id;sensor_type;location;lat;lon;timestamp;P1;durP1;ratioP1;P2;durP2;ratioP2
15126;SDS011;7664;52.008;4.748;2022-07-10T00:01:44;1.38;;;0.55;;
15126;SDS011;7664;52.008;4.748;2022-07-10T00:04:14;2.22;;;1.05;;
15126;SDS011;7664;52.008;4.748;2022-07-10T00:06:45;0.70;;;0.50;;
15126;SDS011;7664;52.008;4.748;2022-07-10T00:09:13;1.13;;;0.60;;
15126;SDS011;7664;52.008;4.748;2022-07-10T00:11:49;4.63;;;1.42;;
15126;SDS011;7664;52.008;4.748;2022-07-10T00:14:17;3.05;;;0.80;;
15126;SDS011;7664;52.008;4.748;2022-07-10T00:16:46;4.72;;;1.00;;
15126;SDS011;7664;52.008;4.748;2022-07-10T00:19:14;3.45;;;0.60;;
15126;SDS011;7664;52.008;4.748;2022-07-10T00:21:44;4.25;;;0.82;;
15126;SDS011;7664;52.008;4.748;2022-07-10T00:24:12;2.08;;;0.70;;
15126;SDS011;7664;52.008;4.748;2022-07-10T00:26:40;3.20;;;0.70;;
15126;SDS011;7664;52.008;4.748;2022-07-10T00:29:12;4.90;;;1.10;;
15126;SDS011;7664;52.008;4.748;2022-07-10T00:31:43;1.17;;;0.50;;
15126;SDS011;7664;52.008;4.748;2022-07-10T00:34:11;3.10;;;0.75;;
15126;SDS011;7664;52.008;4.748;2022-07-10T00:36:40;3.03;;;0.70;;
15126;SDS011;7664;52.008;4.748;2022-07-10T00:39:11;3.55;;;0.70;;
15126;SDS011;7664;52.008;4.748;2022-07-10T00:41:41;1.70;;;0.70;;
15126;SDS011;7664;52.008;4.748;2022-07-10T00:44:12;3.55;;;0.60;;
15126;SDS011;7664;52.008;4.748;2022-07-10T00:46:43;2.00;;;0.77;;
15126;SDS011;7664;52.008;4.748;2022-07-10T00:49:14;1.77;;;1.02;;
15126;SDS011;7664;52.008;4.748;2022-07-10T00:51:43;2.00;;;0.57;;
15126;SDS011;7664;52.008;4.748;2022-07-10T00:54:11;2.03;;;0.73;;
15126;SDS011;7664;52.008;4.748;2022-07-10T00:56:39;2.22;;;0.40;;
15126;SDS011;7664;52.008;4.748;2022-07-10T00:59:09;2.10;;;0.70;;
15126;SDS011;7664;52.008;4.748;2022-07-10T01:01:39;3.63;;;0.68;;
15126;SDS011;7664;52.008;4.748;2022-07-10T01:04:07;3.28;;;1.10;;
15126;SDS011;7664;52.008;4.748;2022-07-10T01:06:35;4.15;;;0.55;;
15126;SDS011;7664;52.008;4.748;2022-07-10T01:09:04;2.47;;;0.88;;
15126;SDS011;7664;52.008;4.748;2022-07-10T01:11:38;2.58;;;0.93;;
15126;SDS011;7664;52.008;4.748;2022-07-10T01:14:10;1.08;;;0.35;;
15126;SDS011;7664;52.008;4.748;2022-07-10T01:16:41;1.42;;;0.50;;
15126;SDS011;7664;52.008;4.748;2022-07-10T01:19:09;2.92;;;0.65;;
15126;SDS011;7664;52.008;4.748;2022-07-10T01:21:39;1.45;;;0.50;;
15126;SDS011;7664;52.008;4.748;2022-07-10T01:24:10;1.65;;;0.50;;
15126;SDS011;7664;52.008;4.748;2022-07-10T01:26:38;1.35;;;0.70;;
15126;SDS011;7664;52.008;4.748;2022-07-10T01:29:09;5.25;;;0.70;;
15126;SDS011;7664;52.008;4.748;2022-07-10T01:31:41;3.15;;;0.55;;
15126;SDS011;7664;52.008;4.748;2022-07-10T01:34:09;2.38;;;0.60;;
15126;SDS011;7664;52.008;4.748;2022-07-10T01:36:37;1.65;;;0.50;;
15126;SDS011;7664;52.008;4.748;2022-07-10T01:39:07;3.25;;;0.70;;
15126;SDS011;7664;52.008;4.748;2022-07-10T01:41:35;2.38;;;0.60;;
15126;SDS011;7664;52.008;4.748;2022-07-10T01:44:03;1.90;;;0.50;;
15126;SDS011;7664;52.008;4.748;2022-07-10T01:46:32;4.00;;;0.63;;
15126;SDS011;7664;52.008;4.748;2022-07-10T01:49:00;1.85;;;0.93;;
15126;SDS011;7664;52.008;4.748;2022-07-10T01:51:28;3.47;;;0.90;;
15126;SDS011;7664;52.008;4.748;2022-07-10T01:54:00;1.38;;;0.65;;
15126;SDS011;7664;52.008;4.748;2022-07-10T01:56:30;5.07;;;0.80;;
15126;SDS011;7664;52.008;4.748;2022-07-10T01:58:59;1.73;;;0.70;;
15126;SDS011;7664;52.008;4.748;2022-07-10T02:01:31;3.67;;;0.90;;
15126;SDS011;7664;52.008;4.748;2022-07-10T02:03:59;1.15;;;0.80;;
15126;SDS011;7664;52.008;4.748;2022-07-10T02:06:45;2.03;;;0.95;;
15126;SDS011;7664;52.008;4.748;2022-07-10T02:09:15;1.58;;;0.73;;
15126;SDS011;7664;52.008;4.748;2022-07-10T02:11:46;5.68;;;0.63;;
15126;SDS011;7664;52.008;4.748;2022-07-10T02:14:14;4.57;;;1.02;;
15126;SDS011;7664;52.008;4.748;2022-07-10T02:16:43;2.10;;;0.68;;
15126;SDS011;7664;52.008;4.748;2022-07-10T02:19:11;2.40;;;0.70;;
15126;SDS011;7664;52.008;4.748;2022-07-10T02:21:40;1.95;;;0.80;;
15126;SDS011;7664;52.008;4.748;2022-07-10T02:24:08;2.10;;;0.95;;
15126;SDS011;7664;52.008;4.748;2022-07-10T02:26:37;0.82;;;0.43;;
15126;SDS011;7664;52.008;4.748;2022-07-10T02:29:08;1.80;;;0.75;;
15126;SDS011;7664;52.008;4.748;2022-07-10T02:31:37;1.85;;;0.88;;
15126;SDS011;7664;52.008;4.748;2022-07-10T02:34:07;5.13;;;0.90;;
15126;SDS011;7664;52.008;4.748;2022-07-10T02:36:39;1.65;;;0.73;;
15126;SDS011;7664;52.008;4.748;2022-07-10T02:39:11;4.72;;;0.82;;
15126;SDS011;7664;52.008;4.748;2022-07-10T02:41:42;6.82;;;1.10;;
15126;SDS011;7664;52.008;4.748;2022-07-10T02:44:10;1.92;;;0.80;;
15126;SDS011;7664;52.008;4.748;2022-07-10T02:46:45;1.77;;;0.88;;
15126;SDS011;7664;52.008;4.748;2022-07-10T02:49:14;1.30;;;0.85;;
15126;SDS011;7664;52.008;4.748;2022-07-10T02:51:44;2.60;;;0.90;;
15126;SDS011;7664;52.008;4.748;2022-07-10T02:54:15;4.68;;;0.93;;
15126;SDS011;7664;52.008;4.748;2022-07-10T02:56:49;2.65;;;0.57;;
15126;SDS011;7664;52.008;4.748;2022-07-10T02:59:20;3.42;;;1.10;;
15126;SDS011;7664;52.008;4.748;2022-07-10T03:01:52;2.03;;;0.57;;
15126;SDS011;7664;52.008;4.748;2022-07-10T03:04:20;3.20;;;1.33;;
15126;SDS011;7664;52.008;4.748;2022-07-10T03:06:49;1.10;;;0.57;;
15126;SDS011;7664;52.008;4.748;2022-07-10T03:09:19;4.90;;;0.80;;
15126;SDS011;7664;52.008;4.748;2022-07-10T03:11:53;4.22;;;0.60;;
15126;SDS011;7664;52.008;4.748;2022-07-10T03:14:21;1.65;;;0.70;;
15126;SDS011;7664;52.008;4.748;2022-07-10T03:16:49;4.07;;;0.60;;
15126;SDS011;7664;52.008;4.748;2022-07-10T03:19:17;3.83;;;0.90;;
15126;SDS011;7664;52.008;4.748;2022-07-10T03:21:46;3.55;;;0.82;;
15126;SDS011;7664;52.008;4.748;2022-07-10T03:24:14;2.35;;;0.63;;
15126;SDS011;7664;52.008;4.748;2022-07-10T03:26:45;2.13;;;0.80;;
15126;SDS011;7664;52.008;4.748;2022-07-10T03:29:19;1.90;;;0.90;;
15126;SDS011;7664;52.008;4.748;2022-07-10T03:31:48;3.30;;;0.80;;
15126;SDS011;7664;52.008;4.748;2022-07-10T03:34:16;5.15;;;0.90;;
15126;SDS011;7664;52.008;4.748;2022-07-10T03:36:47;1.63;;;0.77;;
15126;SDS011;7664;52.008;4.748;2022-07-10T03:39:16;4.32;;;0.88;;
15126;SDS011;7664;52.008;4.748;2022-07-10T03:41:44;5.93;;;0.80;;
15126;SDS011;7664;52.008;4.748;2022-07-10T03:44:12;2.70;;;1.10;;
15126;SDS011;7664;52.008;4.748;2022-07-10T03:46:41;1.02;;;0.50;;
15126;SDS011;7664;52.008;4.748;2022-07-10T03:49:12;5.68;;;0.88;;
15126;SDS011;7664;52.008;4.748;2022-07-10T03:51:40;3.90;;;1.05;;
15126;SDS011;7664;52.008;4.748;2022-07-10T03:54:08;5.40;;;0.90;;
15126;SDS011;7664;52.008;4.748;2022-07-10T03:56:36;3.42;;;0.90;;
15126;SDS011;7664;52.008;4.748;2022-07-10T03:59:23;1.55;;;0.77;;
15126;SDS011;7664;52.008;4.748;2022-07-10T04:01:58;1.33;;;0.70;;
15126;SDS011;7664;52.008;4.748;2022-07-10T04:04:33;0.77;;;0.60;;
15126;SDS011;7664;52.008;4.748;2022-07-10T04:07:01;3.03;;;0.60;;
15126;SDS011;7664;52.008;4.748;2022-07-10T04:09:32;1.58;;;0.50;;
15126;SDS011;7664;52.008;4.748;2022-07-10T04:12:00;3.30;;;0.73;;
15126;SDS011;7664;52.008;4.748;2022-07-10T04:14:31;3.05;;;0.60;;
15126;SDS011;7664;52.008;4.748;2022-07-10T04:17:10;2.22;;;0.60;;
15126;SDS011;7664;52.008;4.748;2022-07-10T04:19:38;2.03;;;0.73;;
15126;SDS011;7664;52.008;4.748;2022-07-10T04:22:09;3.28;;;0.93;;
15126;SDS011;7664;52.008;4.748;2022-07-10T04:24:38;1.33;;;0.70;;
15126;SDS011;7664;52.008;4.748;2022-07-10T04:27:06;1.73;;;0.75;;
15126;SDS011;7664;52.008;4.748;2022-07-10T04:29:34;3.38;;;1.20;;
15126;SDS011;7664;52.008;4.748;2022-07-10T04:32:04;4.53;;;0.85;;
15126;SDS011;7664;52.008;4.748;2022-07-10T04:34:32;2.25;;;0.60;;
15126;SDS011;7664;52.008;4.748;2022-07-10T04:37:00;4.28;;;0.60;;
15126;SDS011;7664;52.008;4.748;2022-07-10T04:39:29;2.28;;;1.05;;
15126;SDS011;7664;52.008;4.748;2022-07-10T04:41:57;1.13;;;0.70;;
15126;SDS011;7664;52.008;4.748;2022-07-10T04:44:26;1.80;;;0.68;;
15126;SDS011;7664;52.008;4.748;2022-07-10T04:46:54;4.55;;;1.35;;
15126;SDS011;7664;52.008;4.748;2022-07-10T04:49:27;3.05;;;0.70;;
15126;SDS011;7664;52.008;4.748;2022-07-10T04:51:58;0.47;;;0.40;;
15126;SDS011;7664;52.008;4.748;2022-07-10T04:54:27;4.10;;;0.70;;
15126;SDS011;7664;52.008;4.748;2022-07-10T04:56:55;2.60;;;0.60;;
15126;SDS011;7664;52.008;4.748;2022-07-10T04:59:23;2.28;;;0.80;;
15126;SDS011;7664;52.008;4.748;2022-07-10T05:01:51;2.28;;;0.73;;
15126;SDS011;7664;52.008;4.748;2022-07-10T05:04:19;5.10;;;1.02;;
15126;SDS011;7664;52.008;4.748;2022-07-10T05:06:50;1.75;;;0.82;;
15126;SDS011;7664;52.008;4.748;2022-07-10T05:09:20;2.38;;;0.50;;
15126;SDS011;7664;52.008;4.748;2022-07-10T05:11:51;1.67;;;0.60;;
15126;SDS011;7664;52.008;4.748;2022-07-10T05:14:19;3.97;;;0.82;;
15126;SDS011;7664;52.008;4.748;2022-07-10T05:16:51;3.40;;;0.88;;
15126;SDS011;7664;52.008;4.748;2022-07-10T05:19:19;1.70;;;0.80;;
15126;SDS011;7664;52.008;4.748;2022-07-10T05:21:55;4.40;;;0.80;;
15126;SDS011;7664;52.008;4.748;2022-07-10T05:24:23;2.75;;;0.60;;
15126;SDS011;7664;52.008;4.748;2022-07-10T05:26:51;1.92;;;0.65;;
15126;SDS011;7664;52.008;4.748;2022-07-10T05:29:19;2.53;;;0.50;;
15126;SDS011;7664;52.008;4.748;2022-07-10T05:31:50;2.75;;;0.60;;
15126;SDS011;7664;52.008;4.748;2022-07-10T05:34:21;0.63;;;0.35;;
15126;SDS011;7664;52.008;4.748;2022-07-10T05:36:49;5.63;;;0.93;;
15126;SDS011;7664;52.008;4.748;2022-07-10T05:39:21;2.13;;;0.60;;
15126;SDS011;7664;52.008;4.748;2022-07-10T05:41:54;2.28;;;0.88;;
15126;SDS011;7664;52.008;4.748;2022-07-10T05:44:25;2.65;;;0.60;;
15126;SDS011;7664;52.008;4.748;2022-07-10T05:46:56;3.30;;;0.52;;
15126;SDS011;7664;52.008;4.748;2022-07-10T05:49:24;3.47;;;1.00;;
15126;SDS011;7664;52.008;4.748;2022-07-10T05:51:55;4.30;;;0.80;;
15126;SDS011;7664;52.008;4.748;2022-07-10T05:54:25;2.33;;;0.90;;
15126;SDS011;7664;52.008;4.748;2022-07-10T05:56:54;1.63;;;0.90;;
15126;SDS011;7664;52.008;4.748;2022-07-10T05:59:22;4.60;;;2.50;;
15126;SDS011;7664;52.008;4.748;2022-07-10T06:01:50;3.13;;;1.30;;
15126;SDS011;7664;52.008;4.748;2022-07-10T06:04:18;1.75;;;0.60;;
15126;SDS011;7664;52.008;4.748;2022-07-10T06:06:46;4.20;;;0.80;;
15126;SDS011;7664;52.008;4.748;2022-07-10T06:09:15;2.83;;;0.98;;
15126;SDS011;7664;52.008;4.748;2022-07-10T06:11:45;1.73;;;0.60;;
15126;SDS011;7664;52.008;4.748;2022-07-10T06:14:16;3.47;;;1.27;;
15126;SDS011;7664;52.008;4.748;2022-07-10T06:16:46;2.85;;;0.98;;
15126;SDS011;7664;52.008;4.748;2022-07-10T06:19:17;1.85;;;0.73;;
15126;SDS011;7664;52.008;4.748;2022-07-10T06:21:45;4.43;;;1.00;;
15126;SDS011;7664;52.008;4.748;2022-07-10T06:24:16;2.60;;;1.00;;
15126;SDS011;7664;52.008;4.748;2022-07-10T06:26:51;3.78;;;1.10;;
15126;SDS011;7664;52.008;4.748;2022-07-10T06:29:20;5.13;;;1.80;;
15126;SDS011;7664;52.008;4.748;2022-07-10T06:31:48;6.00;;;1.25;;
15126;SDS011;7664;52.008;4.748;2022-07-10T06:34:16;5.13;;;1.58;;
15126;SDS011;7664;52.008;4.748;2022-07-10T06:39:31;4.55;;;1.15;;
15126;SDS011;7664;52.008;4.748;2022-07-10T06:42:08;4.88;;;0.93;;
15126;SDS011;7664;52.008;4.748;2022-07-10T06:44:47;2.70;;;1.17;;
15126;SDS011;7664;52.008;4.748;2022-07-10T06:47:17;4.78;;;1.48;;
15126;SDS011;7664;52.008;4.748;2022-07-10T06:50:09;3.95;;;1.67;;
15126;SDS011;7664;52.008;4.748;2022-07-10T06:52:40;3.92;;;0.90;;
15126;SDS011;7664;52.008;4.748;2022-07-10T06:55:09;2.95;;;1.60;;
15126;SDS011;7664;52.008;4.748;2022-07-10T06:57:39;3.13;;;0.93;;
15126;SDS011;7664;52.008;4.748;2022-07-10T07:00:09;2.08;;;1.00;;
15126;SDS011;7664;52.008;4.748;2022-07-10T07:02:38;4.55;;;1.65;;
15126;SDS011;7664;52.008;4.748;2022-07-10T07:05:06;1.73;;;1.00;;
15126;SDS011;7664;52.008;4.748;2022-07-10T07:07:36;3.58;;;1.10;;
15126;SDS011;7664;52.008;4.748;2022-07-10T07:10:05;5.72;;;1.88;;
15126;SDS011;7664;52.008;4.748;2022-07-10T07:12:39;4.28;;;0.95;;
15126;SDS011;7664;52.008;4.748;2022-07-10T07:15:07;2.65;;;0.68;;
15126;SDS011;7664;52.008;4.748;2022-07-10T07:17:39;6.07;;;1.50;;
15126;SDS011;7664;52.008;4.748;2022-07-10T07:20:24;6.13;;;1.63;;
15126;SDS011;7664;52.008;4.748;2022-07-10T07:23:17;2.55;;;1.33;;
15126;SDS011;7664;52.008;4.748;2022-07-10T07:25:45;4.55;;;1.90;;
15126;SDS011;7664;52.008;4.748;2022-07-10T07:28:15;12.65;;;5.43;;
15126;SDS011;7664;52.008;4.748;2022-07-10T07:30:45;13.50;;;7.00;;
15126;SDS011;7664;52.008;4.748;2022-07-10T07:33:16;13.85;;;7.38;;
15126;SDS011;7664;52.008;4.748;2022-07-10T07:35:44;7.85;;;3.55;;
15126;SDS011;7664;52.008;4.748;2022-07-10T07:38:12;5.53;;;2.17;;
15126;SDS011;7664;52.008;4.748;2022-07-10T07:40:42;3.33;;;1.35;;
15126;SDS011;7664;52.008;4.748;2022-07-10T07:43:10;4.75;;;3.03;;
15126;SDS011;7664;52.008;4.748;2022-07-10T07:45:41;5.00;;;2.33;;
15126;SDS011;7664;52.008;4.748;2022-07-10T07:48:09;4.00;;;1.35;;
15126;SDS011;7664;52.008;4.748;2022-07-10T07:50:37;4.30;;;1.55;;
15126;SDS011;7664;52.008;4.748;2022-07-10T07:53:05;5.20;;;1.70;;
15126;SDS011;7664;52.008;4.748;2022-07-10T07:55:33;4.07;;;1.48;;
15126;SDS011;7664;52.008;4.748;2022-07-10T07:58:04;3.88;;;1.60;;
15126;SDS011;7664;52.008;4.748;2022-07-10T08:00:32;2.47;;;1.17;;
15126;SDS011;7664;52.008;4.748;2022-07-10T08:03:03;4.28;;;1.15;;
15126;SDS011;7664;52.008;4.748;2022-07-10T08:05:31;2.05;;;1.05;;
15126;SDS011;7664;52.008;4.748;2022-07-10T08:08:01;1.50;;;0.40;;
15126;SDS011;7664;52.008;4.748;2022-07-10T08:10:35;3.40;;;1.17;;
15126;SDS011;7664;52.008;4.748;2022-07-10T08:13:11;2.10;;;1.05;;
15126;SDS011;7664;52.008;4.748;2022-07-10T08:15:41;4.25;;;1.00;;
15126;SDS011;7664;52.008;4.748;2022-07-10T08:18:15;1.33;;;0.60;;
15126;SDS011;7664;52.008;4.748;2022-07-10T08:20:46;1.63;;;0.80;;
15126;SDS011;7664;52.008;4.748;2022-07-10T08:23:18;2.08;;;0.73;;
15126;SDS011;7664;52.008;4.748;2022-07-10T08:25:45;3.67;;;1.50;;
15126;SDS011;7664;52.008;4.748;2022-07-10T08:28:14;3.42;;;1.27;;
15126;SDS011;7664;52.008;4.748;2022-07-10T08:30:51;2.05;;;1.02;;
15126;SDS011;7664;52.008;4.748;2022-07-10T08:33:22;1.60;;;0.75;;
15126;SDS011;7664;52.008;4.748;2022-07-10T08:35:50;0.75;;;0.73;;
15126;SDS011;7664;52.008;4.748;2022-07-10T08:38:20;1.08;;;0.75;;
15126;SDS011;7664;52.008;4.748;2022-07-10T08:40:50;3.05;;;1.20;;
15126;SDS011;7664;52.008;4.748;2022-07-10T08:43:25;2.67;;;1.20;;
15126;SDS011;7664;52.008;4.748;2022-07-10T08:45:53;1.92;;;0.70;;
15126;SDS011;7664;52.008;4.748;2022-07-10T08:48:23;3.17;;;0.80;;
15126;SDS011;7664;52.008;4.748;2022-07-10T08:50:57;1.75;;;0.60;;
15126;SDS011;7664;52.008;4.748;2022-07-10T08:53:32;1.63;;;0.50;;
15126;SDS011;7664;52.008;4.748;2022-07-10T08:56:02;11.43;;;1.48;;
15126;SDS011;7664;52.008;4.748;2022-07-10T08:58:31;1.50;;;0.60;;
15126;SDS011;7664;52.008;4.748;2022-07-10T09:01:02;1.38;;;0.60;;
15126;SDS011;7664;52.008;4.748;2022-07-10T09:03:35;1.85;;;0.52;;
15126;SDS011;7664;52.008;4.748;2022-07-10T09:06:11;2.00;;;0.73;;
15126;SDS011;7664;52.008;4.748;2022-07-10T09:08:57;2.22;;;0.55;;
15126;SDS011;7664;52.008;4.748;2022-07-10T09:11:26;2.08;;;0.85;;
15126;SDS011;7664;52.008;4.748;2022-07-10T09:13:56;1.58;;;0.80;;
15126;SDS011;7664;52.008;4.748;2022-07-10T09:16:26;1.25;;;0.60;;
15126;SDS011;7664;52.008;4.748;2022-07-10T09:19:08;2.50;;;0.52;;
15126;SDS011;7664;52.008;4.748;2022-07-10T09:21:43;2.92;;;0.40;;
15126;SDS011;7664;52.008;4.748;2022-07-10T09:24:12;1.65;;;0.60;;
15126;SDS011;7664;52.008;4.748;2022-07-10T09:26:40;1.05;;;0.50;;
15126;SDS011;7664;52.008;4.748;2022-07-10T09:29:11;0.40;;;0.30;;
15126;SDS011;7664;52.008;4.748;2022-07-10T09:31:49;4.90;;;0.77;;
15126;SDS011;7664;52.008;4.748;2022-07-10T09:34:19;2.00;;;0.70;;
15126;SDS011;7664;52.008;4.748;2022-07-10T09:37:18;0.68;;;0.50;;
15126;SDS011;7664;52.008;4.748;2022-07-10T09:39:55;0.40;;;0.40;;
15126;SDS011;7664;52.008;4.748;2022-07-10T09:42:29;1.60;;;0.55;;
15126;SDS011;7664;52.008;4.748;2022-07-10T09:45:14;2.45;;;0.50;;
15126;SDS011;7664;52.008;4.748;2022-07-10T09:47:53;1.25;;;0.47;;
15126;SDS011;7664;52.008;4.748;2022-07-10T09:50:25;2.10;;;0.65;;
15126;SDS011;7664;52.008;4.748;2022-07-10T09:52:54;1.75;;;0.40;;
15126;SDS011;7664;52.008;4.748;2022-07-10T09:55:24;2.67;;;0.60;;
15126;SDS011;7664;52.008;4.748;2022-07-10T09:57:54;1.23;;;0.30;;
15126;SDS011;7664;52.008;4.748;2022-07-10T10:00:24;1.20;;;0.57;;
15126;SDS011;7664;52.008;4.748;2022-07-10T10:02:55;2.58;;;0.95;;
15126;SDS011;7664;52.008;4.748;2022-07-10T10:05:30;3.13;;;0.50;;
15126;SDS011;7664;52.008;4.748;2022-07-10T10:08:03;1.92;;;0.60;;
15126;SDS011;7664;52.008;4.748;2022-07-10T10:10:36;1.15;;;0.50;;
15126;SDS011;7664;52.008;4.748;2022-07-10T10:13:07;1.23;;;0.65;;
15126;SDS011;7664;52.008;4.748;2022-07-10T10:15:38;3.50;;;0.52;;
15126;SDS011;7664;52.008;4.748;2022-07-10T10:18:06;2.20;;;0.55;;
15126;SDS011;7664;52.008;4.748;2022-07-10T10:20:36;1.00;;;0.50;;
15126;SDS011;7664;52.008;4.748;2022-07-10T10:23:04;1.65;;;0.47;;
15126;SDS011;7664;52.008;4.748;2022-07-10T10:25:33;1.02;;;0.50;;
15126;SDS011;7664;52.008;4.748;2022-07-10T10:28:02;0.57;;;0.30;;
15126;SDS011;7664;52.008;4.748;2022-07-10T10:30:41;0.68;;;0.40;;
15126;SDS011;7664;52.008;4.748;2022-07-10T10:36:13;1.63;;;0.60;;
15126;SDS011;7664;52.008;4.748;2022-07-10T10:39:03;0.70;;;0.45;;
15126;SDS011;7664;52.008;4.748;2022-07-10T10:41:36;1.77;;;0.60;;
15126;SDS011;7664;52.008;4.748;2022-07-10T10:44:21;6.95;;;2.78;;
15126;SDS011;7664;52.008;4.748;2022-07-10T10:46:56;4.88;;;1.30;;
15126;SDS011;7664;52.008;4.748;2022-07-10T10:52:18;3.65;;;0.90;;
15126;SDS011;7664;52.008;4.748;2022-07-10T10:55:03;0.88;;;0.60;;
15126;SDS011;7664;52.008;4.748;2022-07-10T10:57:38;0.63;;;0.40;;
15126;SDS011;7664;52.008;4.748;2022-07-10T11:00:16;1.92;;;0.50;;
15126;SDS011;7664;52.008;4.748;2022-07-10T11:03:12;5.00;;;0.70;;
15126;SDS011;7664;52.008;4.748;2022-07-10T11:05:42;1.05;;;0.60;;
15126;SDS011;7664;52.008;4.748;2022-07-10T11:08:12;0.50;;;0.40;;
15126;SDS011;7664;52.008;4.748;2022-07-10T11:10:41;0.90;;;0.55;;
15126;SDS011;7664;52.008;4.748;2022-07-10T11:13:15;1.95;;;0.60;;
15126;SDS011;7664;52.008;4.748;2022-07-10T11:15:44;1.00;;;0.40;;
15126;SDS011;7664;52.008;4.748;2022-07-10T11:18:16;4.65;;;0.60;;
15126;SDS011;7664;52.008;4.748;2022-07-10T11:20:46;3.25;;;1.02;;
15126;SDS011;7664;52.008;4.748;2022-07-10T11:23:32;1.25;;;0.40;;
15126;SDS011;7664;52.008;4.748;2022-07-10T11:26:21;0.80;;;0.35;;
15126;SDS011;7664;52.008;4.748;2022-07-10T11:28:52;1.35;;;0.55;;
15126;SDS011;7664;52.008;4.748;2022-07-10T11:31:22;3.20;;;0.70;;
15126;SDS011;7664;52.008;4.748;2022-07-10T11:33:51;1.35;;;0.45;;
15126;SDS011;7664;52.008;4.748;2022-07-10T11:36:21;2.53;;;0.70;;
15126;SDS011;7664;52.008;4.748;2022-07-10T11:38:57;0.73;;;0.50;;
15126;SDS011;7664;52.008;4.748;2022-07-10T11:41:26;0.75;;;0.50;;
15126;SDS011;7664;52.008;4.748;2022-07-10T11:43:55;1.52;;;0.40;;
15126;SDS011;7664;52.008;4.748;2022-07-10T11:46:24;2.05;;;0.85;;
15126;SDS011;7664;52.008;4.748;2022-07-10T11:48:53;2.10;;;0.40;;
15126;SDS011;7664;52.008;4.748;2022-07-10T11:51:24;0.90;;;0.47;;
15126;SDS011;7664;52.008;4.748;2022-07-10T11:53:57;2.70;;;0.50;;
15126;SDS011;7664;52.008;4.748;2022-07-10T11:56:28;1.17;;;0.40;;
15126;SDS011;7664;52.008;4.748;2022-07-10T11:58:59;2.58;;;0.60;;
15126;SDS011;7664;52.008;4.748;2022-07-10T12:01:29;2.60;;;0.40;;
15126;SDS011;7664;52.008;4.748;2022-07-10T12:04:02;0.35;;;0.20;;
15126;SDS011;7664;52.008;4.748;2022-07-10T12:06:33;1.25;;;0.50;;
15126;SDS011;7664;52.008;4.748;2022-07-10T12:09:04;1.02;;;0.57;;
15126;SDS011;7664;52.008;4.748;2022-07-10T12:11:34;1.38;;;0.88;;
15126;SDS011;7664;52.008;4.748;2022-07-10T12:14:09;0.57;;;0.40;;
15126;SDS011;7664;52.008;4.748;2022-07-10T12:16:40;2.53;;;0.45;;
15126;SDS011;7664;52.008;4.748;2022-07-10T12:19:10;0.85;;;0.35;;
15126;SDS011;7664;52.008;4.748;2022-07-10T12:21:40;0.85;;;0.50;;
15126;SDS011;7664;52.008;4.748;2022-07-10T12:24:11;1.65;;;0.90;;
15126;SDS011;7664;52.008;4.748;2022-07-10T12:26:40;1.98;;;0.85;;
15126;SDS011;7664;52.008;4.748;2022-07-10T12:29:11;0.30;;;0.30;;
15126;SDS011;7664;52.008;4.748;2022-07-10T12:31:46;2.63;;;0.40;;
15126;SDS011;7664;52.008;4.748;2022-07-10T12:34:15;1.48;;;0.40;;
15126;SDS011;7664;52.008;4.748;2022-07-10T12:36:44;1.17;;;0.50;;
15126;SDS011;7664;52.008;4.748;2022-07-10T12:39:15;0.40;;;0.30;;
15126;SDS011;7664;52.008;4.748;2022-07-10T12:41:54;0.90;;;0.40;;
15126;SDS011;7664;52.008;4.748;2022-07-10T12:44:33;0.50;;;0.45;;
15126;SDS011;7664;52.008;4.748;2022-07-10T12:47:02;0.63;;;0.50;;
15126;SDS011;7664;52.008;4.748;2022-07-10T12:49:47;0.93;;;0.43;;
15126;SDS011;7664;52.008;4.748;2022-07-10T12:52:23;1.35;;;0.60;;
15126;SDS011;7664;52.008;4.748;2022-07-10T12:55:08;2.10;;;0.38;;
15126;SDS011;7664;52.008;4.748;2022-07-10T12:57:49;1.92;;;0.30;;
15126;SDS011;7664;52.008;4.748;2022-07-10T13:00:19;1.40;;;0.50;;
15126;SDS011;7664;52.008;4.748;2022-07-10T13:02:50;0.93;;;0.50;;
15126;SDS011;7664;52.008;4.748;2022-07-10T13:05:26;1.63;;;0.57;;
15126;SDS011;7664;52.008;4.748;2022-07-10T13:08:03;1.13;;;0.43;;
15126;SDS011;7664;52.008;4.748;2022-07-10T13:10:35;1.98;;;0.70;;
15126;SDS011;7664;52.008;4.748;2022-07-10T13:13:03;2.15;;;0.70;;
15126;SDS011;7664;52.008;4.748;2022-07-10T13:15:31;0.85;;;0.45;;
15126;SDS011;7664;52.008;4.748;2022-07-10T13:18:06;1.38;;;0.50;;
15126;SDS011;7664;52.008;4.748;2022-07-10T13:20:34;1.63;;;0.68;;
15126;SDS011;7664;52.008;4.748;2022-07-10T13:23:02;2.88;;;0.40;;
15126;SDS011;7664;52.008;4.748;2022-07-10T13:25:30;0.85;;;0.40;;
15126;SDS011;7664;52.008;4.748;2022-07-10T13:28:00;1.15;;;0.40;;
15126;SDS011;7664;52.008;4.748;2022-07-10T13:30:28;2.25;;;0.50;;
15126;SDS011;7664;52.008;4.748;2022-07-10T13:32:56;1.70;;;0.65;;
15126;SDS011;7664;52.008;4.748;2022-07-10T13:35:25;1.90;;;0.70;;
15126;SDS011;7664;52.008;4.748;2022-07-10T13:37:54;1.17;;;0.60;;
15126;SDS011;7664;52.008;4.748;2022-07-10T13:40:26;2.25;;;0.75;;
15126;SDS011;7664;52.008;4.748;2022-07-10T13:42:54;2.13;;;0.60;;
15126;SDS011;7664;52.008;4.748;2022-07-10T13:45:24;2.20;;;0.70;;
15126;SDS011;7664;52.008;4.748;2022-07-10T13:47:56;1.70;;;0.45;;
15126;SDS011;7664;52.008;4.748;2022-07-10T13:50:24;4.00;;;1.05;;
15126;SDS011;7664;52.008;4.748;2022-07-10T13:52:52;1.63;;;0.75;;
15126;SDS011;7664;52.008;4.748;2022-07-10T13:55:20;2.70;;;0.60;;
15126;SDS011;7664;52.008;4.748;2022-07-10T13:57:48;1.40;;;0.90;;
15126;SDS011;7664;52.008;4.748;2022-07-10T14:00:16;2.45;;;0.70;;
15126;SDS011;7664;52.008;4.748;2022-07-10T14:02:45;5.55;;;0.80;;
15126;SDS011;7664;52.008;4.748;2022-07-10T14:05:13;1.23;;;0.63;;
15126;SDS011;7664;52.008;4.748;2022-07-10T14:07:41;1.17;;;0.70;;
15126;SDS011;7664;52.008;4.748;2022-07-10T14:10:09;2.10;;;0.45;;
15126;SDS011;7664;52.008;4.748;2022-07-10T14:12:37;0.75;;;0.50;;
15126;SDS011;7664;52.008;4.748;2022-07-10T14:15:06;1.23;;;0.50;;
15126;SDS011;7664;52.008;4.748;2022-07-10T14:17:35;1.70;;;0.47;;
15126;SDS011;7664;52.008;4.748;2022-07-10T14:20:04;2.70;;;0.85;;
15126;SDS011;7664;52.008;4.748;2022-07-10T14:22:33;3.65;;;0.80;;
15126;SDS011;7664;52.008;4.748;2022-07-10T14:25:01;2.75;;;0.80;;
15126;SDS011;7664;52.008;4.748;2022-07-10T14:27:30;2.25;;;0.60;;
15126;SDS011;7664;52.008;4.748;2022-07-10T14:29:58;0.98;;;0.75;;
15126;SDS011;7664;52.008;4.748;2022-07-10T14:32:26;2.88;;;0.70;;
15126;SDS011;7664;52.008;4.748;2022-07-10T14:34:54;1.77;;;1.15;;
15126;SDS011;7664;52.008;4.748;2022-07-10T14:37:23;1.25;;;0.85;;
15126;SDS011;7664;52.008;4.748;2022-07-10T14:39:51;1.58;;;0.60;;
15126;SDS011;7664;52.008;4.748;2022-07-10T14:42:19;1.73;;;0.65;;
15126;SDS011;7664;52.008;4.748;2022-07-10T14:44:47;1.63;;;0.90;;
15126;SDS011;7664;52.008;4.748;2022-07-10T14:47:15;1.50;;;0.63;;
15126;SDS011;7664;52.008;4.748;2022-07-10T14:49:43;1.33;;;0.60;;
15126;SDS011;7664;52.008;4.748;2022-07-10T14:52:11;2.30;;;0.82;;
15126;SDS011;7664;52.008;4.748;2022-07-10T14:54:41;1.63;;;0.75;;
15126;SDS011;7664;52.008;4.748;2022-07-10T14:57:09;2.83;;;0.90;;
15126;SDS011;7664;52.008;4.748;2022-07-10T14:59:39;3.80;;;1.02;;
15126;SDS011;7664;52.008;4.748;2022-07-10T15:02:07;4.00;;;0.75;;
15126;SDS011;7664;52.008;4.748;2022-07-10T15:04:35;1.55;;;0.90;;
15126;SDS011;7664;52.008;4.748;2022-07-10T15:07:03;0.60;;;0.60;;
15126;SDS011;7664;52.008;4.748;2022-07-10T15:09:31;2.45;;;0.88;;
15126;SDS011;7664;52.008;4.748;2022-07-10T15:12:00;1.33;;;0.63;;
15126;SDS011;7664;52.008;4.748;2022-07-10T15:14:31;2.30;;;0.77;;
15126;SDS011;7664;52.008;4.748;2022-07-10T15:17:03;2.47;;;0.90;;
15126;SDS011;7664;52.008;4.748;2022-07-10T15:19:36;1.30;;;1.02;;
15126;SDS011;7664;52.008;4.748;2022-07-10T15:22:06;3.38;;;0.80;;
15126;SDS011;7664;52.008;4.748;2022-07-10T15:24:34;1.25;;;0.75;;
15126;SDS011;7664;52.008;4.748;2022-07-10T15:27:04;2.85;;;0.80;;
15126;SDS011;7664;52.008;4.748;2022-07-10T15:29:32;3.13;;;1.00;;
15126;SDS011;7664;52.008;4.748;2022-07-10T15:32:03;2.90;;;0.73;;